Time;durP1;ratioP1;P1;durP2;ratioP2;P2;SDS_P1;SDS_P2;PMS_P1;PMS_P2;Temp;Humidity;BMP_temperature;BMP_pressure;BME280_temperature;BME280_humidity;BME280_pressure;Samples;Min_cycle;Max_cycle;Signal;HPM_P1;HPM_P2
2023/12/19 00:03:52;;;;;;;21.70;12.73;;;4.60;99.90;;;;;;7361986;32;20123;-57
2023/12/19 00:08:12;;;;;;;18.87;12.25;;;4.50;99.90;;;;;;7368978;32;20119;-57
2023/12/19 00:12:31;;;;;;;22.10;13.43;;;4.50;99.90;;;;;;7362763;32;20164;-57
2023/12/19 00:16:33;;;;;;;21.10;12.82;;;4.40;99.90;;;;;;7365361;32;20117;-58
2023/12/19 00:20:35;;;;;;;21.75;13.60;;;4.50;99.90;;;;;;7369527;32;20087;-57
2023/12/19 00:24:40;;;;;;;22.52;13.88;;;4.40;99.90;;;;;;7371508;32;20300;-57
2023/12/19 00:28:43;;;;;;;21.40;14.27;;;4.40;99.90;;;;;;7365935;32;20134;-57
2023/12/19 00:32:45;;;;;;;24.35;15.15;;;4.30;99.90;;;;;;7364330;32;20526;-57
2023/12/19 00:36:48;;;;;;;22.52;14.40;;;4.30;99.90;;;;;;7367887;32;20103;-57
2023/12/19 00:40:49;;;;;;;22.90;14.30;;;4.30;99.90;;;;;;7368110;32;20220;-57
2023/12/19 00:44:51;;;;;;;23.62;15.50;;;4.30;99.90;;;;;;7365888;32;20556;-57
2023/12/19 00:48:54;;;;;;;21.35;15.57;;;4.30;99.90;;;;;;7366336;32;20652;-57
2023/12/19 00:52:56;;;;;;;24.10;16.23;;;4.20;99.90;;;;;;7365763;32;22857;-57
2023/12/19 00:56:58;;;;;;;25.62;14.75;;;4.30;99.90;;;;;;7363624;32;20618;-57
2023/12/19 01:00:59;;;;;;;19.27;13.90;;;4.20;99.90;;;;;;7364998;32;20223;-57
2023/12/19 01:05:01;;;;;;;21.83;14.50;;;4.30;99.90;;;;;;7359430;32;20106;-56
2023/12/19 01:09:05;;;;;;;21.25;13.25;;;4.30;99.90;;;;;;7364725;32;20151;-58
2023/12/19 01:13:06;;;;;;;21.67;14.02;;;4.30;99.90;;;;;;7364973;32;20244;-57
2023/12/19 01:17:08;;;;;;;20.65;13.23;;;4.30;99.90;;;;;;7357396;32;20399;-55
2023/12/19 01:21:10;;;;;;;18.52;12.52;;;4.30;99.90;;;;;;7370452;32;20747;-56
2023/12/19 01:25:12;;;;;;;21.12;13.55;;;4.30;99.90;;;;;;7363450;32;20130;-57
2023/12/19 01:29:14;;;;;;;20.75;12.70;;;4.30;99.90;;;;;;7367295;32;20195;-57
2023/12/19 01:33:16;;;;;;;17.33;12.43;;;4.30;99.90;;;;;;7362556;32;20172;-57
2023/12/19 01:37:18;;;;;;;17.95;13.15;;;4.30;99.90;;;;;;7374210;32;20584;-57
2023/12/19 01:41:22;;;;;;;22.05;13.52;;;4.30;99.90;;;;;;7370730;32;20180;-57
2023/12/19 01:45:29;;;;;;;21.90;13.73;;;4.20;99.90;;;;;;7365340;32;20182;-57
2023/12/19 01:49:31;;;;;;;19.20;13.77;;;4.20;99.90;;;;;;7371093;32;20163;-57
2023/12/19 01:53:34;;;;;;;19.55;13.05;;;4.20;99.90;;;;;;7371777;32;20392;-58
2023/12/19 01:57:36;;;;;;;21.85;13.73;;;4.20;99.90;;;;;;7370696;32;20687;-58
2023/12/19 02:01:38;;;;;;;21.60;14.45;;;4.20;99.90;;;;;;7364102;32;20216;-57
2023/12/19 02:05:43;;;;;;;20.33;13.57;;;4.20;99.90;;;;;;7365018;32;20472;-57
2023/12/19 02:09:45;;;;;;;21.42;13.90;;;4.20;99.90;;;;;;7364841;32;20426;-57
2023/12/19 02:13:47;;;;;;;19.70;12.98;;;4.10;99.90;;;;;;7367603;32;20102;-57
2023/12/19 02:17:49;;;;;;;20.35;12.43;;;4.00;99.90;;;;;;7367340;32;20107;-57
2023/12/19 02:21:50;;;;;;;20.23;13.30;;;4.10;99.90;;;;;;7369472;32;20218;-57
2023/12/19 02:25:53;;;;;;;16.25;12.73;;;4.00;99.90;;;;;;7369490;32;20128;-57
2023/12/19 02:29:54;;;;;;;20.60;13.18;;;4.00;99.90;;;;;;7362541;32;20114;-57
2023/12/19 02:33:56;;;;;;;22.08;13.30;;;4.00;99.90;;;;;;7366570;32;20516;-57
2023/12/19 02:37:58;;;;;;;21.35;13.32;;;4.10;99.90;;;;;;7369233;32;20553;-57
2023/12/19 02:42:00;;;;;;;19.92;13.77;;;4.10;99.90;;;;;;7374980;32;20168;-57
2023/12/19 02:46:02;;;;;;;23.33;13.40;;;4.10;99.90;;;;;;7366858;32;20202;-56
2023/12/19 02:50:05;;;;;;;18.48;13.18;;;4.10;99.90;;;;;;7369182;32;20213;-58
2023/12/19 02:54:07;;;;;;;19.35;13.15;;;4.10;99.90;;;;;;7361742;32;20497;-57
2023/12/19 02:58:08;;;;;;;20.67;13.35;;;4.20;99.90;;;;;;7368212;32;20231;-57
2023/12/19 03:02:10;;;;;;;19.70;12.45;;;4.10;99.90;;;;;;7365551;32;20201;-57
2023/12/19 03:06:16;;;;;;;18.25;12.20;;;4.10;99.90;;;;;;7367193;32;20160;-58
2023/12/19 03:10:17;;;;;;;18.50;12.68;;;4.10;99.90;;;;;;7367370;32;20406;-57
2023/12/19 03:14:19;;;;;;;19.08;13.07;;;4.10;99.90;;;;;;7371034;32;20582;-57
2023/12/19 03:18:24;;;;;;;21.75;13.07;;;4.20;99.90;;;;;;7363243;32;20127;-57
2023/12/19 03:22:27;;;;;;;20.48;12.60;;;4.10;99.90;;;;;;7365772;32;20601;-57
2023/12/19 03:26:29;;;;;;;18.98;13.52;;;4.20;99.90;;;;;;7366187;32;20572;-57
2023/12/19 03:30:31;;;;;;;19.75;12.68;;;4.30;99.90;;;;;;7368408;32;20201;-58
2023/12/19 03:34:32;;;;;;;19.85;13.40;;;4.30;99.90;;;;;;7367384;32;20491;-59
2023/12/19 03:38:35;;;;;;;22.83;12.52;;;4.30;99.90;;;;;;7371064;32;20107;-57
2023/12/19 03:42:37;;;;;;;21.05;12.32;;;4.30;99.90;;;;;;7371795;32;20131;-58
2023/12/19 03:46:41;;;;;;;17.62;11.32;;;4.30;99.90;;;;;;7362088;32;20091;-58
2023/12/19 03:50:43;;;;;;;18.48;12.20;;;4.30;99.90;;;;;;7359000;32;20175;-57
2023/12/19 03:54:45;;;;;;;17.90;12.45;;;4.30;99.90;;;;;;7366671;32;20148;-57
2023/12/19 03:58:46;;;;;;;16.25;11.05;;;4.30;99.90;;;;;;7365760;32;20111;-57
2023/12/19 04:02:48;;;;;;;19.95;12.00;;;4.30;99.90;;;;;;7365660;32;20214;-57
2023/12/19 04:06:50;;;;;;;19.55;11.05;;;4.30;99.90;;;;;;7370073;32;20162;-57
2023/12/19 04:10:52;;;;;;;17.37;11.18;;;4.30;99.90;;;;;;7371704;32;20483;-58
2023/12/19 04:14:53;;;;;;;15.80;10.40;;;4.40;99.90;;;;;;7366768;32;20167;-58
2023/12/19 04:18:55;;;;;;;17.02;11.02;;;4.30;99.90;;;;;;7363715;32;20328;-58
2023/12/19 04:22:57;;;;;;;15.80;10.20;;;4.30;99.90;;;;;;7364712;32;20155;-57
2023/12/19 04:26:59;;;;;;;18.45;11.38;;;4.40;99.90;;;;;;7364117;32;20221;-57
2023/12/19 04:31:00;;;;;;;16.12;10.70;;;4.30;99.90;;;;;;7368351;32;20127;-57
2023/12/19 04:35:03;;;;;;;15.63;10.98;;;4.40;99.90;;;;;;7361987;32;20099;-57
2023/12/19 04:39:05;;;;;;;15.63;10.85;;;4.30;99.90;;;;;;7356302;32;20103;-57
2023/12/19 04:43:07;;;;;;;16.60;9.85;;;4.30;99.90;;;;;;7360472;32;20219;-57
2023/12/19 04:47:09;;;;;;;18.42;10.57;;;4.30;99.90;;;;;;7356684;32;20183;-57
2023/12/19 04:51:20;;;;;;;18.08;10.25;;;4.30;99.90;;;;;;7361444;32;20450;-57
2023/12/19 04:55:22;;;;;;;16.35;10.35;;;4.30;99.90;;;;;;7370704;32;20664;-57
2023/12/19 04:59:24;;;;;;;14.87;10.25;;;4.30;99.90;;;;;;7355894;32;20206;-57
2023/12/19 05:03:26;;;;;;;16.73;9.50;;;4.40;99.90;;;;;;7358141;32;20162;-57
2023/12/19 05:07:28;;;;;;;14.90;10.18;;;4.40;99.90;;;;;;7362422;32;20163;-57
2023/12/19 05:11:30;;;;;;;14.27;9.98;;;4.50;99.90;;;;;;7365143;32;20111;-57
2023/12/19 05:15:32;;;;;;;13.65;9.75;;;4.40;99.90;;;;;;7361823;32;20133;-57
2023/12/19 05:19:34;;;;;;;16.67;10.02;;;4.40;99.90;;;;;;7362314;32;20281;-57
2023/12/19 05:23:47;;;;;;;14.85;9.95;;;4.40;99.90;;;;;;7377682;32;20087;-58
2023/12/19 05:27:49;;;;;;;15.40;9.95;;;4.50;99.90;;;;;;7368896;32;20258;-57
2023/12/19 05:31:51;;;;;;;17.67;11.85;;;4.50;99.90;;;;;;7370722;32;20195;-57
2023/12/19 05:35:53;;;;;;;16.10;10.57;;;4.50;99.90;;;;;;7364970;32;20149;-57
2023/12/19 05:39:55;;;;;;;16.60;10.70;;;4.60;99.90;;;;;;7370133;32;20613;-58
2023/12/19 05:43:59;;;;;;;16.12;11.38;;;4.50;99.90;;;;;;7364861;32;20237;-57
2023/12/19 05:48:03;;;;;;;15.05;11.25;;;4.60;99.90;;;;;;7369528;32;20106;-59
2023/12/19 05:52:06;;;;;;;14.18;10.85;;;4.60;99.90;;;;;;7369338;32;20230;-57
2023/12/19 05:56:15;;;;;;;18.30;12.35;;;4.60;99.90;;;;;;7373080;32;20467;-58
2023/12/19 06:00:17;;;;;;;17.42;12.43;;;4.70;99.90;;;;;;7362766;32;20099;-57
2023/12/19 06:04:19;;;;;;;18.05;12.48;;;4.70;99.90;;;;;;7367515;32;22385;-57
2023/12/19 06:08:22;;;;;;;15.60;12.27;;;4.80;99.90;;;;;;7366958;32;20199;-58
2023/12/19 06:12:24;;;;;;;18.87;12.48;;;4.80;99.90;;;;;;7370286;32;20186;-57
2023/12/19 06:16:25;;;;;;;17.02;13.23;;;4.80;99.90;;;;;;7367665;32;20514;-58
2023/12/19 06:20:27;;;;;;;17.60;12.43;;;4.80;99.90;;;;;;7361871;32;20328;-58
2023/12/19 06:24:29;;;;;;;15.65;11.73;;;4.90;99.90;;;;;;7367110;32;20277;-57
2023/12/19 06:28:32;;;;;;;18.30;13.38;;;4.90;99.90;;;;;;7364709;32;20126;-57
2023/12/19 06:32:35;;;;;;;17.40;13.27;;;5.00;99.90;;;;;;7369625;32;20639;-57
2023/12/19 06:36:38;;;;;;;17.48;12.85;;;5.10;99.90;;;;;;7368739;32;20493;-58
2023/12/19 06:40:40;;;;;;;18.00;13.32;;;5.20;99.90;;;;;;7367133;32;20123;-57
2023/12/19 06:44:42;;;;;;;17.60;12.60;;;5.20;99.90;;;;;;7361001;32;20099;-58
2023/12/19 06:48:44;;;;;;;19.30;13.70;;;5.20;99.90;;;;;;7365333;32;20169;-58
2023/12/19 06:52:46;;;;;;;19.35;12.80;;;5.30;99.90;;;;;;7363760;32;20129;-58
2023/12/19 06:56:48;;;;;;;19.23;14.20;;;5.20;99.90;;;;;;7369064;32;20687;-59
2023/12/19 07:00:50;;;;;;;18.08;13.45;;;5.30;99.90;;;;;;7364684;32;20122;-57
2023/12/19 07:04:52;;;;;;;18.67;12.88;;;5.30;99.90;;;;;;7363834;32;20098;-58
2023/12/19 07:08:55;;;;;;;17.98;12.35;;;5.40;99.90;;;;;;7357083;32;20142;-57
2023/12/19 07:12:58;;;;;;;17.65;12.90;;;5.40;99.90;;;;;;7362940;32;20621;-58
2023/12/19 07:16:59;;;;;;;15.57;12.07;;;5.40;99.90;;;;;;7369879;32;20212;-59
2023/12/19 07:21:01;;;;;;;16.60;12.10;;;5.50;99.90;;;;;;7372640;32;20120;-58
2023/12/19 07:25:03;;;;;;;16.40;12.00;;;5.50;99.90;;;;;;7367432;32;20179;-59
2023/12/19 07:29:08;;;;;;;18.42;11.27;;;5.50;99.90;;;;;;7366744;32;20599;-58
2023/12/19 07:33:11;;;;;;;14.98;11.00;;;5.60;99.90;;;;;;7370775;32;20213;-58
2023/12/19 07:37:13;;;;;;;16.52;11.80;;;5.50;99.90;;;;;;7371951;32;20099;-59
2023/12/19 07:41:14;;;;;;;14.68;10.30;;;5.60;99.90;;;;;;7367693;32;20106;-59
2023/12/19 07:45:17;;;;;;;14.93;10.50;;;5.50;99.90;;;;;;7368883;32;20121;-56
2023/12/19 07:49:19;;;;;;;13.07;10.02;;;5.60;99.90;;;;;;7363591;32;20190;-57
2023/12/19 07:53:21;;;;;;;14.38;10.32;;;5.60;99.90;;;;;;7368915;32;20139;-56
2023/12/19 07:57:23;;;;;;;12.65;9.57;;;5.60;99.90;;;;;;7363973;32;20122;-58
2023/12/19 08:01:25;;;;;;;15.27;10.40;;;5.60;99.90;;;;;;7362449;32;20179;-58
2023/12/19 08:05:27;;;;;;;11.35;8.70;;;5.60;99.90;;;;;;7369057;32;20181;-58
2023/12/19 08:09:30;;;;;;;11.93;8.95;;;5.60;99.90;;;;;;7362174;32;20108;-57
2023/12/19 08:13:32;;;;;;;10.55;8.88;;;5.70;99.90;;;;;;7367753;32;20189;-57
2023/12/19 08:17:35;;;;;;;13.05;8.48;;;5.70;99.90;;;;;;7363096;32;20676;-58
2023/12/19 08:21:47;;;;;;;10.68;8.65;;;5.70;99.90;;;;;;7360831;32;20102;-57
2023/12/19 08:25:50;;;;;;;10.10;7.60;;;5.70;99.90;;;;;;7355656;32;21113;-56
2023/12/19 08:29:52;;;;;;;11.32;8.70;;;5.70;99.90;;;;;;7360222;32;20441;-56
2023/12/19 08:33:54;;;;;;;12.70;7.78;;;5.70;99.90;;;;;;7366821;32;20099;-58
2023/12/19 08:37:56;;;;;;;13.13;8.50;;;5.80;99.90;;;;;;7364070;32;20213;-56
2023/12/19 08:41:59;;;;;;;10.70;7.93;;;5.80;99.90;;;;;;7363345;32;20107;-57
2023/12/19 08:46:00;;;;;;;10.32;7.22;;;5.70;99.90;;;;;;7361642;32;20216;-58
2023/12/19 08:50:05;;;;;;;10.98;7.50;;;5.70;99.90;;;;;;7368255;32;20117;-57
2023/12/19 08:54:09;;;;;;;9.75;6.90;;;5.70;99.90;;;;;;7365007;32;20252;-57
2023/12/19 08:58:11;;;;;;;9.18;6.65;;;5.70;99.90;;;;;;7368085;32;20193;-56
2023/12/19 09:02:13;;;;;;;8.75;6.45;;;5.60;99.90;;;;;;7366652;32;21476;-56
2023/12/19 09:06:15;;;;;;;8.40;6.35;;;5.60;99.90;;;;;;7363942;32;20171;-56
2023/12/19 09:10:17;;;;;;;11.45;6.93;;;5.60;99.90;;;;;;7362690;32;20324;-56
2023/12/19 09:14:20;;;;;;;9.80;7.07;;;5.60;99.90;;;;;;7364921;32;20208;-56
2023/12/19 09:18:24;;;;;;;8.82;6.20;;;5.70;99.90;;;;;;7364111;32;20210;-57
2023/12/19 09:22:26;;;;;;;8.77;6.55;;;5.60;99.90;;;;;;7366898;32;20107;-57
2023/12/19 09:26:28;;;;;;;8.85;6.28;;;5.60;99.90;;;;;;7364207;32;20168;-56
2023/12/19 09:30:29;;;;;;;9.05;6.12;;;5.70;99.90;;;;;;7364969;32;20115;-57
2023/12/19 09:34:31;;;;;;;7.78;5.43;;;5.70;99.90;;;;;;7364784;32;20240;-56
2023/12/19 09:38:33;;;;;;;9.40;6.62;;;5.70;99.90;;;;;;7350048;32;20222;-56
2023/12/19 09:42:35;;;;;;;8.00;5.70;;;5.70;99.90;;;;;;7362466;32;20341;-57
2023/12/19 09:46:37;;;;;;;8.63;5.85;;;5.80;99.90;;;;;;7361322;32;20107;-57
2023/12/19 09:50:44;;;;;;;8.88;6.60;;;5.90;99.90;;;;;;7366504;32;20135;-57
2023/12/19 09:54:46;;;;;;;7.30;5.47;;;5.90;99.90;;;;;;7364646;32;20114;-56
2023/12/19 09:58:49;;;;;;;10.07;5.60;;;5.90;99.90;;;;;;7360479;32;20200;-57
2023/12/19 10:02:52;;;;;;;12.68;5.75;;;5.90;99.90;;;;;;7368427;32;20789;-57
2023/12/19 10:06:55;;;;;;;7.62;5.53;;;5.90;99.90;;;;;;7371166;32;20422;-57
2023/12/19 10:10:57;;;;;;;7.65;5.35;;;6.00;99.90;;;;;;7351497;32;20387;-56
2023/12/19 10:15:13;;;;;;;8.20;5.05;;;6.00;99.90;;;;;;7365919;32;20182;-57
2023/12/19 10:19:26;;;;;;;9.45;5.43;;;6.00;99.90;;;;;;7360056;32;20518;-56
2023/12/19 10:23:28;;;;;;;6.97;4.80;;;6.00;99.90;;;;;;7372674;32;20178;-56
2023/12/19 10:27:30;;;;;;;6.90;4.97;;;5.90;99.90;;;;;;7367555;32;20159;-56
2023/12/19 10:31:33;;;;;;;8.43;5.50;;;6.00;99.90;;;;;;7368754;32;20323;-57
2023/12/19 10:35:39;;;;;;;7.50;4.95;;;6.00;99.90;;;;;;7367332;32;20103;-56
2023/12/19 10:39:44;;;;;;;9.03;4.97;;;6.00;99.90;;;;;;7374594;32;20193;-56
2023/12/19 10:43:51;;;;;;;5.93;4.37;;;6.10;99.90;;;;;;7362412;32;20103;-56
2023/12/19 10:47:53;;;;;;;6.80;4.90;;;6.20;99.90;;;;;;7366121;32;20103;-56
2023/12/19 10:51:57;;;;;;;8.90;4.97;;;6.10;99.90;;;;;;7370168;32;20169;-56
2023/12/19 10:56:03;;;;;;;7.78;5.10;;;6.20;99.90;;;;;;7371152;32;20517;-56
2023/12/19 11:00:13;;;;;;;8.53;5.00;;;6.20;99.90;;;;;;7374933;32;20104;-57
2023/12/19 11:04:22;;;;;;;7.72;4.70;;;6.20;99.90;;;;;;7363983;32;20159;-56
2023/12/19 11:08:27;;;;;;;8.45;5.00;;;6.30;99.90;;;;;;7365909;32;20102;-56
2023/12/19 11:12:29;;;;;;;8.30;5.50;;;6.30;99.90;;;;;;7370718;32;20115;-56
2023/12/19 11:16:45;;;;;;;9.00;5.68;;;6.40;99.90;;;;;;7367225;32;20255;-57
2023/12/19 11:20:58;;;;;;;9.73;5.07;;;6.40;99.90;;;;;;7367575;32;20528;-57
2023/12/19 11:25:29;;;;;;;11.93;5.20;;;6.40;99.90;;;;;;7372854;32;20148;-56
2023/12/19 11:29:53;;;;;;;11.12;5.32;;;6.40;99.90;;;;;;7376507;32;20163;-56
2023/12/19 11:33:55;;;;;;;9.30;5.12;;;6.50;99.90;;;;;;7365057;32;20182;-56
2023/12/19 11:38:19;;;;;;;9.73;5.05;;;6.60;99.90;;;;;;7369322;32;20491;-56
2023/12/19 11:42:39;;;;;;;8.27;4.93;;;6.60;99.90;;;;;;7364618;32;20260;-56
2023/12/19 11:46:41;;;;;;;6.85;4.53;;;6.60;99.90;;;;;;7371573;32;20536;-57
2023/12/19 11:50:43;;;;;;;8.50;5.25;;;6.60;99.90;;;;;;7368213;32;20286;-56
2023/12/19 11:54:45;;;;;;;11.02;5.70;;;6.70;99.90;;;;;;7363501;32;20202;-56
2023/12/19 11:58:48;;;;;;;13.38;4.82;;;6.70;99.90;;;;;;7365940;32;20170;-56
2023/12/19 12:02:50;;;;;;;7.10;4.12;;;6.80;99.90;;;;;;7364384;32;20340;-56
2023/12/19 12:06:56;;;;;;;5.65;4.22;;;6.90;99.90;;;;;;7368239;32;20226;-57
2023/12/19 12:11:07;;;;;;;8.50;4.00;;;7.00;99.90;;;;;;7366099;32;20118;-55
2023/12/19 12:15:12;;;;;;;11.57;5.07;;;7.00;99.90;;;;;;7364580;32;20119;-55
2023/12/19 12:19:16;;;;;;;9.27;4.65;;;7.00;99.90;;;;;;7360742;32;20099;-57
2023/12/19 12:23:21;;;;;;;9.13;4.93;;;7.10;99.90;;;;;;7370075;32;20242;-56
2023/12/19 12:27:24;;;;;;;6.95;4.65;;;7.10;99.90;;;;;;7365322;32;20199;-56
2023/12/19 12:31:26;;;;;;;13.35;4.70;;;7.10;99.90;;;;;;7363569;32;20210;-56
2023/12/19 12:35:35;;;;;;;10.00;4.87;;;7.20;99.90;;;;;;7366573;32;20103;-56
2023/12/19 12:39:37;;;;;;;9.15;4.85;;;7.30;99.90;;;;;;7367681;32;20099;-56
2023/12/19 12:43:48;;;;;;;13.35;5.03;;;7.20;99.90;;;;;;7366554;32;20245;-56
2023/12/19 12:47:50;;;;;;;8.50;4.40;;;7.20;99.90;;;;;;7372558;32;20126;-56
2023/12/19 12:51:57;;;;;;;9.38;5.20;;;7.20;99.90;;;;;;7363055;32;20104;-56
2023/12/19 12:56:06;;;;;;;9.85;4.95;;;7.20;99.90;;;;;;7373528;32;20272;-56
2023/12/19 13:00:08;;;;;;;9.10;4.80;;;7.10;99.90;;;;;;7370082;32;20211;-56
2023/12/19 13:04:25;;;;;;;11.80;4.87;;;7.10;99.90;;;;;;7364261;32;20273;-55
2023/12/19 13:08:30;;;;;;;11.12;5.55;;;7.20;99.90;;;;;;7368564;32;20103;-57
2023/12/19 13:12:33;;;;;;;13.05;5.03;;;7.20;99.90;;;;;;7363951;32;20262;-57
2023/12/19 13:16:35;;;;;;;9.25;5.22;;;7.20;99.90;;;;;;7369771;32;20201;-57
2023/12/19 13:20:37;;;;;;;12.15;4.78;;;7.20;99.90;;;;;;7364594;32;20552;-58
2023/12/19 13:24:39;;;;;;;8.02;4.75;;;7.30;99.90;;;;;;7366416;32;20162;-58
2023/12/19 13:28:44;;;;;;;10.05;5.12;;;7.30;99.90;;;;;;7361732;32;20103;-58
2023/12/19 13:32:46;;;;;;;6.62;4.60;;;7.20;99.90;;;;;;7365503;32;20592;-56
2023/12/19 13:36:48;;;;;;;9.60;5.47;;;7.30;99.90;;;;;;7364215;32;20095;-57
2023/12/19 13:40:50;;;;;;;11.18;4.87;;;7.30;99.90;;;;;;7365603;32;20103;-57
2023/12/19 13:44:52;;;;;;;9.13;5.07;;;7.40;99.90;;;;;;7355660;32;20181;-58
2023/12/19 13:48:54;;;;;;;12.60;5.40;;;7.30;99.90;;;;;;7361475;32;20107;-57
2023/12/19 13:52:56;;;;;;;34.97;19.50;;;7.30;99.90;;;;;;7368906;32;20206;-58
2023/12/19 13:56:58;;;;;;;8.95;5.20;;;7.50;99.90;;;;;;7357767;32;20474;-57
2023/12/19 14:01:00;;;;;;;7.07;4.25;;;7.40;99.90;;;;;;7360490;32;20125;-57
2023/12/19 14:05:02;;;;;;;7.70;4.90;;;7.50;99.90;;;;;;7375492;32;20125;-57
2023/12/19 14:09:04;;;;;;;9.70;5.00;;;7.40;99.90;;;;;;7362126;32;20127;-56
2023/12/19 14:13:06;;;;;;;10.75;4.43;;;7.30;99.90;;;;;;7372809;32;20100;-57
2023/12/19 14:17:08;;;;;;;8.20;4.40;;;7.40;99.90;;;;;;7378363;32;20193;-57
2023/12/19 14:21:10;;;;;;;11.20;4.80;;;7.40;99.90;;;;;;7368593;32;20141;-57
2023/12/19 14:25:12;;;;;;;9.55;4.07;;;7.40;99.90;;;;;;7371742;32;20164;-57
2023/12/19 14:29:14;;;;;;;11.38;4.35;;;7.40;99.90;;;;;;7369014;32;20103;-56
2023/12/19 14:33:16;;;;;;;9.38;4.07;;;7.40;99.90;;;;;;7359219;32;20106;-57
2023/12/19 14:37:18;;;;;;;8.73;4.65;;;7.40;99.90;;;;;;7374021;32;20187;-57
2023/12/19 14:41:20;;;;;;;11.48;3.78;;;7.40;99.90;;;;;;7369591;32;20107;-57
2023/12/19 14:45:23;;;;;;;10.75;4.07;;;7.40;99.90;;;;;;7369597;32;20745;-56
2023/12/19 14:49:25;;;;;;;7.05;4.30;;;7.50;99.90;;;;;;7373519;32;20125;-56
2023/12/19 14:53:27;;;;;;;12.45;4.07;;;7.50;99.90;;;;;;7376956;32;20111;-57
2023/12/19 14:57:29;;;;;;;6.60;4.00;;;7.40;99.90;;;;;;7373650;32;20631;-56
2023/12/19 15:01:31;;;;;;;7.40;4.28;;;7.40;99.90;;;;;;7369822;32;20273;-56
2023/12/19 15:05:33;;;;;;;8.95;4.82;;;7.40;99.90;;;;;;7376702;32;20249;-57
2023/12/19 15:09:35;;;;;;;11.65;4.40;;;7.50;99.90;;;;;;7370813;32;20096;-57
2023/12/19 15:13:38;;;;;;;12.43;4.90;;;7.50;99.90;;;;;;7375398;32;20361;-57
2023/12/19 15:17:40;;;;;;;6.75;4.22;;;7.50;99.90;;;;;;7371135;32;20130;-56
2023/12/19 15:21:42;;;;;;;11.85;5.12;;;7.40;99.90;;;;;;7368837;32;20576;-55
2023/12/19 15:25:44;;;;;;;10.05;4.72;;;7.40;99.90;;;;;;7376059;32;20125;-57
2023/12/19 15:29:46;;;;;;;16.87;4.93;;;7.50;99.90;;;;;;7372681;32;20155;-56
2023/12/19 15:33:48;;;;;;;8.88;4.80;;;7.50;99.90;;;;;;7368521;32;20425;-57
2023/12/19 15:37:50;;;;;;;10.40;4.50;;;7.50;99.90;;;;;;7378255;32;20220;-58
2023/12/19 15:41:52;;;;;;;8.93;4.68;;;7.50;99.90;;;;;;7374630;32;20525;-57
2023/12/19 15:45:54;;;;;;;8.90;3.92;;;7.50;99.90;;;;;;7372968;32;20162;-57
2023/12/19 15:49:56;;;;;;;7.55;4.12;;;7.50;99.90;;;;;;7347851;32;20107;-57
2023/12/19 15:54:01;;;;;;;10.70;4.72;;;7.50;99.90;;;;;;7373647;32;20583;-57
2023/12/19 15:58:03;;;;;;;12.25;4.50;;;7.50;99.90;;;;;;7372562;32;20569;-57
2023/12/19 16:02:07;;;;;;;8.77;4.65;;;7.50;99.90;;;;;;7370771;32;20612;-57
2023/12/19 16:06:09;;;;;;;9.75;4.85;;;7.50;99.90;;;;;;7372534;32;20107;-57
2023/12/19 16:10:12;;;;;;;10.95;4.78;;;7.50;99.90;;;;;;7368606;32;20103;-58
2023/12/19 16:14:14;;;;;;;9.27;4.75;;;7.50;99.90;;;;;;7373075;32;20118;-58
2023/12/19 16:18:16;;;;;;;7.47;4.85;;;7.50;99.90;;;;;;7367039;32;20110;-57
2023/12/19 16:22:18;;;;;;;6.82;4.15;;;7.50;99.90;;;;;;7368936;32;20131;-57
2023/12/19 16:26:21;;;;;;;9.13;5.07;;;7.50;99.90;;;;;;7368223;32;20143;-57
2023/12/19 16:30:23;;;;;;;8.98;4.62;;;7.60;99.90;;;;;;7372728;32;20557;-56
2023/12/19 16:34:25;;;;;;;11.63;5.15;;;7.60;99.90;;;;;;7381209;32;20110;-56
2023/12/19 16:38:28;;;;;;;8.32;4.43;;;7.50;99.90;;;;;;7361846;32;20107;-57
2023/12/19 16:42:30;;;;;;;6.47;4.32;;;7.50;99.90;;;;;;7367797;32;20138;-56
2023/12/19 16:46:32;;;;;;;8.63;4.22;;;7.50;99.90;;;;;;7373569;32;20202;-57
2023/12/19 16:50:45;;;;;;;6.60;4.62;;;7.60;99.90;;;;;;7358529;32;20088;-56
2023/12/19 16:54:47;;;;;;;8.82;4.80;;;7.60;99.90;;;;;;7368746;32;20548;-56
2023/12/19 16:58:48;;;;;;;7.72;5.07;;;7.60;99.90;;;;;;7371734;32;20130;-56
2023/12/19 17:02:50;;;;;;;7.30;4.90;;;7.60;99.90;;;;;;7364954;32;20209;-59
2023/12/19 17:06:53;;;;;;;8.18;5.20;;;7.60;99.90;;;;;;7370148;32;20189;-57
2023/12/19 17:10:55;;;;;;;8.25;4.90;;;7.60;99.90;;;;;;7364483;32;20107;-57
2023/12/19 17:14:56;;;;;;;9.77;5.72;;;7.60;99.90;;;;;;7375794;32;20273;-57
2023/12/19 17:18:58;;;;;;;7.82;5.45;;;7.60;99.90;;;;;;7369413;32;20160;-56
2023/12/19 17:23:00;;;;;;;9.48;5.72;;;7.60;99.90;;;;;;7369172;32;20111;-56
2023/12/19 17:27:02;;;;;;;10.02;5.35;;;7.60;99.90;;;;;;7380616;32;20315;-56
2023/12/19 17:31:04;;;;;;;8.02;5.32;;;7.60;99.90;;;;;;7365835;32;20177;-57
2023/12/19 17:35:07;;;;;;;11.95;8.63;;;7.60;99.90;;;;;;7375099;32;20156;-57
2023/12/19 17:39:08;;;;;;;8.00;5.57;;;7.60;99.90;;;;;;7380614;32;20156;-56
2023/12/19 17:43:10;;;;;;;9.90;5.82;;;7.50;99.90;;;;;;7371934;32;20122;-57
2023/12/19 17:47:12;;;;;;;7.22;5.15;;;7.60;99.90;;;;;;7368912;32;20265;-57
2023/12/19 17:51:15;;;;;;;7.87;5.62;;;7.50;99.90;;;;;;7376217;32;20538;-58
2023/12/19 17:55:16;;;;;;;8.35;6.00;;;7.50;99.90;;;;;;7369801;32;20103;-56
2023/12/19 17:59:19;;;;;;;7.97;6.15;;;7.50;99.90;;;;;;7364868;32;20528;-57
2023/12/19 18:03:21;;;;;;;7.93;6.28;;;7.50;99.90;;;;;;7372924;32;20127;-57
2023/12/19 18:07:23;;;;;;;10.15;6.97;;;7.60;99.90;;;;;;7375839;32;20253;-56
2023/12/19 18:11:25;;;;;;;11.27;7.62;;;7.60;99.90;;;;;;7371768;32;20398;-57
2023/12/19 18:15:27;;;;;;;8.25;6.87;;;7.60;99.90;;;;;;7371823;32;20186;-57
2023/12/19 18:19:30;;;;;;;11.50;8.05;;;7.50;99.90;;;;;;7368019;32;20178;-56
2023/12/19 18:23:34;;;;;;;11.32;7.95;;;7.50;99.90;;;;;;7370023;32;20182;-56
2023/12/19 18:27:36;;;;;;;9.45;7.43;;;7.60;99.90;;;;;;7369587;32;20107;-57
2023/12/19 18:31:38;;;;;;;10.07;7.65;;;7.60;99.90;;;;;;7368461;32;20640;-57
2023/12/19 18:35:40;;;;;;;10.85;7.78;;;7.60;99.90;;;;;;7369073;32;20114;-56
2023/12/19 18:39:42;;;;;;;10.40;7.82;;;7.60;99.90;;;;;;7373680;32;20119;-57
2023/12/19 18:43:46;;;;;;;9.68;7.78;;;7.50;99.90;;;;;;7365381;32;20745;-57
2023/12/19 18:47:49;;;;;;;10.82;7.40;;;7.60;99.90;;;;;;7370153;32;20107;-57
2023/12/19 18:51:51;;;;;;;9.60;7.87;;;7.60;99.90;;;;;;7370104;32;20157;-57
2023/12/19 18:55:54;;;;;;;9.30;7.15;;;7.60;99.90;;;;;;7371488;32;20127;-57
2023/12/19 18:59:56;;;;;;;9.50;7.10;;;7.70;99.90;;;;;;7370393;32;20266;-57
2023/12/19 19:03:58;;;;;;;9.30;6.93;;;7.60;99.90;;;;;;7381183;32;20110;-57
2023/12/19 19:08:00;;;;;;;9.73;7.30;;;7.60;99.90;;;;;;7371102;32;20155;-57
2023/12/19 19:12:03;;;;;;;9.63;7.20;;;7.60;99.90;;;;;;7376167;32;20123;-56
2023/12/19 19:16:05;;;;;;;9.25;6.75;;;7.60;99.90;;;;;;7368876;32;20115;-57
2023/12/19 19:20:31;;;;;;;9.65;7.40;;;7.60;99.90;;;;;;7365193;32;20186;-57
2023/12/19 19:24:33;;;;;;;8.98;6.43;;;7.60;99.90;;;;;;7365083;32;20204;-58
2023/12/19 19:28:36;;;;;;;8.73;7.00;;;7.60;99.90;;;;;;7362043;32;20107;-56
2023/12/19 19:32:37;;;;;;;9.57;7.25;;;7.60;99.90;;;;;;7366490;32;20127;-56
2023/12/19 19:36:40;;;;;;;10.02;7.05;;;7.70;99.90;;;;;;7368026;32;20122;-56
2023/12/19 19:40:42;;;;;;;9.90;7.97;;;7.70;99.90;;;;;;7375258;32;20103;-56
2023/12/19 19:44:45;;;;;;;8.98;7.05;;;7.70;99.90;;;;;;7366981;32;20096;-57
2023/12/19 19:48:47;;;;;;;8.70;7.12;;;7.70;99.90;;;;;;7372604;32;20579;-56
2023/12/19 19:52:49;;;;;;;9.68;7.40;;;7.60;99.90;;;;;;7369476;32;20095;-56
2023/12/19 19:56:50;;;;;;;8.27;7.20;;;7.70;99.90;;;;;;7364430;32;20938;-55
2023/12/19 20:05:56;;;;;;;11.35;7.93;;;7.70;99.90;;;;;;7356604;32;20175;-56
2023/12/19 20:09:59;;;;;;;10.55;7.90;;;7.70;99.90;;;;;;7368614;32;20122;-56
2023/12/19 20:14:01;;;;;;;12.15;8.45;;;7.70;99.90;;;;;;7363191;32;20121;-57
2023/12/19 20:18:03;;;;;;;12.15;8.75;;;7.70;99.90;;;;;;7366087;32;20779;-57
2023/12/19 20:22:05;;;;;;;10.30;8.50;;;7.70;99.90;;;;;;7364945;32;20267;-56
2023/12/19 20:26:07;;;;;;;12.80;9.55;;;7.70;99.90;;;;;;7370011;32;20099;-56
2023/12/19 20:30:09;;;;;;;14.18;9.82;;;7.80;99.90;;;;;;7365451;32;20133;-57
2023/12/19 20:34:11;;;;;;;11.80;9.38;;;7.70;99.90;;;;;;7362131;32;20242;-56
2023/12/19 20:38:13;;;;;;;15.18;10.82;;;7.80;99.90;;;;;;7365025;32;20339;-56
2023/12/19 20:42:15;;;;;;;13.75;10.75;;;7.80;99.90;;;;;;7364197;32;20751;-58
2023/12/19 20:46:17;;;;;;;14.95;11.15;;;7.80;99.90;;;;;;7365428;32;20110;-57
2023/12/19 20:50:19;;;;;;;14.60;11.57;;;7.80;99.90;;;;;;7362342;32;20256;-57
2023/12/19 20:54:22;;;;;;;14.65;11.32;;;7.80;99.90;;;;;;7356794;32;20128;-57
2023/12/19 20:58:24;;;;;;;15.15;11.05;;;7.70;99.90;;;;;;7356052;32;20171;-57
2023/12/19 21:02:25;;;;;;;16.67;12.63;;;7.80;99.90;;;;;;7367213;32;20133;-57
2023/12/19 21:06:28;;;;;;;16.42;11.95;;;7.80;99.90;;;;;;7365869;32;21071;-56
2023/12/19 21:10:30;;;;;;;16.58;12.00;;;7.80;99.90;;;;;;7362965;32;20174;-57